createdAt,value
2023-01-03T00:08:24.670Z,12.16
2023-01-03T00:18:32.828Z,11.77
2023-01-03T00:28:40.931Z,11.99
2023-01-03T00:38:49.009Z,11.67
2023-01-03T00:48:57.018Z,12.21
2023-01-03T00:59:05.106Z,12.89
2023-01-03T01:09:13.207Z,13.43
2023-01-03T01:19:21.600Z,13.74
2023-01-03T01:29:29.856Z,13.47
2023-01-03T01:39:38.339Z,13.7
2023-01-03T01:49:47.120Z,13.69
2023-01-03T01:59:55.330Z,14.83
2023-01-03T02:10:03.430Z,14.62
2023-01-03T02:20:11.698Z,14.36
2023-01-03T02:30:20.002Z,14.21
2023-01-03T02:40:28.437Z,14.31
2023-01-03T02:50:37.585Z,13.85
2023-01-03T03:00:45.841Z,13.41
2023-01-03T03:10:54.041Z,14.34
2023-01-03T03:21:02.166Z,13.59
2023-01-03T03:31:10.281Z,15.61
2023-01-03T03:41:18.363Z,17.03
2023-01-03T03:51:26.417Z,18.29
2023-01-03T04:01:34.555Z,14.63
2023-01-03T04:11:42.525Z,13.32
2023-01-03T04:21:50.514Z,15.8
2023-01-03T04:31:58.584Z,16.33
2023-01-03T04:42:06.760Z,15.36
2023-01-03T04:52:14.813Z,14.76
2023-01-03T05:02:23.013Z,14.5
2023-01-03T05:12:30.947Z,13.69
2023-01-03T05:22:39.220Z,12.62
2023-01-03T05:32:47.349Z,13.2
2023-01-03T05:42:55.623Z,13.76
2023-01-03T05:53:03.552Z,13.5
2023-01-03T06:03:11.569Z,12.92
2023-01-03T06:13:19.701Z,12.35
2023-01-03T06:23:27.642Z,13.03
2023-01-03T06:33:35.750Z,12.61
2023-01-03T06:43:43.984Z,13.59
2023-01-03T06:53:52.094Z,13.92
2023-01-03T07:04:00.251Z,14.96
2023-01-03T07:14:08.461Z,13.11
2023-01-03T07:24:16.647Z,12.65
2023-01-03T07:34:25.808Z,12.55
2023-01-03T07:44:34.047Z,15.75
2023-01-03T07:54:42.469Z,15.96
2023-01-03T08:04:50.754Z,13.49
2023-01-03T08:14:58.891Z,15.24
2023-01-03T08:25:06.885Z,10.52
2023-01-03T08:35:54.233Z,11.49
2023-01-03T08:39:52.877Z,12.5
2023-01-03T08:48:50.792Z,13.02
2023-01-03T08:58:58.691Z,10.94
2023-01-03T09:09:09.065Z,12.53
2023-01-03T09:19:08.332Z,14.04
2023-01-03T09:29:17.467Z,11.45
2023-01-03T09:39:25.462Z,15.2
2023-01-03T09:49:33.555Z,19.62
2023-01-03T09:59:41.517Z,15.82
2023-01-03T10:09:52.472Z,12.99
2023-01-03T10:19:52.899Z,8.46
2023-01-03T10:29:51.869Z,8.93
2023-01-03T10:40:01.434Z,9.6
2023-01-03T10:50:09.579Z,9.62
2023-01-03T11:00:19.120Z,11.55
2023-01-03T11:10:27.016Z,10.1
2023-01-03T11:20:34.996Z,9.21
2023-01-03T11:30:43.297Z,9.93
2023-01-03T11:40:51.187Z,10.18
2023-01-03T11:51:00.197Z,9.84
2023-01-03T12:01:08.259Z,8.47
2023-01-03T12:11:16.237Z,8.79
2023-01-03T12:21:24.089Z,8.43
2023-01-03T12:31:32.304Z,10.77
2023-01-03T12:41:40.693Z,9.33
2023-01-03T12:51:50.375Z,8.91
2023-01-03T13:02:00.948Z,8.1
2023-01-03T13:12:10.455Z,8.8
2023-01-03T13:22:11.570Z,9.36
2023-01-03T13:32:11.810Z,8.93
2023-01-03T13:42:13.989Z,7.31
2023-01-03T13:52:17.273Z,6.75
2023-01-03T14:02:15.784Z,6.22
2023-01-03T14:12:26.152Z,5.04
2023-01-03T14:22:30.371Z,6.06
2023-01-03T14:32:35.408Z,5.96
2023-01-03T14:42:33.557Z,4.73
2023-01-03T14:52:43.736Z,4.1
2023-01-03T15:02:41.407Z,4.31
2023-01-03T15:12:49.283Z,5.22
2023-01-03T15:22:59.973Z,5.45
2023-01-03T15:32:57.935Z,6.52
2023-01-03T15:43:05.064Z,7.29
2023-01-03T15:53:13.945Z,7.44
2023-01-03T16:03:22.056Z,7.43
2023-01-03T16:13:29.985Z,7.35
2023-01-03T16:23:37.851Z,7.4
2023-01-03T16:33:45.795Z,8.42
2023-01-03T16:43:53.867Z,8.89
2023-01-03T16:54:01.921Z,9.12
2023-01-03T17:04:09.868Z,7.91
2023-01-03T17:14:18.033Z,9.54
2023-01-03T17:24:26.057Z,9.19
2023-01-03T17:34:34.253Z,8.76
2023-01-03T17:44:42.117Z,8.12
2023-01-03T17:54:50.112Z,8.37
2023-01-03T18:05:17.486Z,8.9
2023-01-03T18:15:05.780Z,9.45
2023-01-03T18:25:18.083Z,8.6
2023-01-03T18:35:26.723Z,8.77
2023-01-03T18:45:28.327Z,9.9
2023-01-03T18:55:36.220Z,9.08
2023-01-03T19:05:44.323Z,9.09
2023-01-03T19:15:55.367Z,10.39
2023-01-03T19:25:53.142Z,10.82
2023-01-03T19:36:01.586Z,11.79
2023-01-03T19:46:12.006Z,9.94
2023-01-03T19:56:10.887Z,11.38
2023-01-03T20:06:26.564Z,11.7
2023-01-03T20:16:28.929Z,12.83
2023-01-03T20:36:53.634Z,11.11
2023-01-03T20:46:40.208Z,11.91
2023-01-03T20:56:49.688Z,12.6
2023-01-03T21:17:00.438Z,11.59
2023-01-03T21:27:07.667Z,12.29
2023-01-03T21:37:18.509Z,11.86
2023-01-03T21:47:10.077Z,11.14
2023-01-03T21:57:08.186Z,11.12
2023-01-03T22:07:20.613Z,11.05
2023-01-03T22:17:19.020Z,11.97
2023-01-03T22:27:30.770Z,11.59
2023-01-03T22:37:32.056Z,11.4
2023-01-03T22:47:30.244Z,12.44
2023-01-03T22:57:39.830Z,15.63
2023-01-03T23:07:49.406Z,13.71
2023-01-03T23:17:58.467Z,12.65
2023-01-03T23:28:07.101Z,11.74
2023-01-03T23:38:17.273Z,12.48
2023-01-03T23:48:15.425Z,11.78
2023-01-03T23:58:23.332Z,11.58
